Alessandro F — IBVQ — position and weather

sailwx.info

Track history (hours):
 
Tides and Currents Weather Stations Pressure Air Temp Water Temp Dewpoint Dewpoint Depression Visibility Wind Speed Wind Dir Waves Ship Positions

Alessandro F

Last reported at 2016-May-04 16:32 UTC. Time now 2016-May-05 04:46 UTC.
Position N 37°56' E 015°31'.

Length 100 m; draft 6.2 m.

Type: Ship (hazmat cat A). MMSI: 247046400.

Date/timePositionNaut miles runAvg speedWind from/ knotsBaromVisibWave heightAir tempDewpointWater temp
2016-May-04 16:32N 37°56' E 015°31'1313.5
2016-May-04 15:34N 38°09' E 015°35'10 9.8
2016-May-04 14:33N 38°18' E 015°40'1313.3
2016-May-04 13:33N 38°20' E 015°23'1313.4
2016-May-04 12:33N 38°18' E 015°06'7013.0
2016-May-04 07:10N 38°24' E 013°37'813.0
2016-May-04 06:33N 38°24' E 013°27'1413.4
2016-May-04 05:30N 38°25' E 013°09'1313.3
2016-May-04 04:29N 38°26' E 012°51'16813.0
2016-May-03 15:32N 39°02' E 009°21'1313.3
2016-May-03 14:33N 39°06' E 009°05'3 3.0
2016-May-03 13:33N 39°06' E 009°02'0 0.0
2016-May-03 12:33N 39°06' E 009°02'0 0.0
2016-May-03 11:33N 39°06' E 009°02'0 0.0
2016-May-03 10:33N 39°06' E 009°02'0 0.0
2016-May-03 09:33N 39°06' E 009°02'0 0.0
2016-May-03 08:33N 39°06' E 009°02'0 0.0
2016-May-03 07:33N 39°06' E 009°02'0 0.0
2016-May-03 06:33N 39°06' E 009°02'0 0.0
2016-May-03 05:33N 39°06' E 009°02'0 0.0
2016-May-03 04:30N 39°06' E 009°02'0 0.0
2016-May-03 03:33N 39°06' E 009°02'0 0.0
2016-May-03 02:33N 39°06' E 009°02'0 0.0
2016-May-03 01:33N 39°06' E 009°02'0 0.0
2016-May-03 00:33N 39°06' E 009°02'0 0.0
2016-May-02 23:33N 39°06' E 009°02'0 0.0
2016-May-02 22:30N 39°06' E 009°02'0 0.0
2016-May-02 21:33N 39°06' E 009°02'0 0.0
2016-May-02 20:33N 39°06' E 009°02'1 1.5
2016-May-02 19:33N 39°07' E 009°03'0 0.1
2016-May-02 18:33N 39°07' E 009°03'0 0.0
2016-May-02 17:32N 39°07' E 009°03'0 0.0
2016-May-02 16:32N 39°07' E 009°03'0 0.0
2016-May-02 15:33N 39°07' E 009°03'0 0.0
2016-May-02 14:33N 39°07' E 009°03'0 0.0
2016-May-02 13:32N 39°07' E 009°03'0 0.0
2016-May-02 12:33N 39°07' E 009°03'0 0.0
2016-May-02 11:33N 39°07' E 009°03'0 0.0
2016-May-02 10:32N 39°07' E 009°03'0 0.0
2016-May-02 09:32N 39°07' E 009°03'0 0.0
2016-May-02 08:33N 39°07' E 009°03'0 0.0
2016-May-02 07:33N 39°07' E 009°03'2 2.1
2016-May-02 06:33N 39°06' E 009°06'1212.2
2016-May-02 05:33N 39°02' E 009°21'25612.2
2016-May-01 08:33N 43°16' E 010°06'1412.0
2016-May-01 07:23N 43°29' E 010°11'7 8.7
2016-May-01 06:33N 43°34' E 010°19'1 0.3
2016-May-01 03:29N 43°35' E 010°19'0 0.0
2016-May-01 02:14N 43°35' E 010°19'0 0.0
2016-May-01 01:32N 43°35' E 010°19'0 0.0
2016-May-01 00:32N 43°35' E 010°19'0 0.0
2016-Apr-30 23:29N 43°35' E 010°19'0 0.0
2016-Apr-30 19:26N 43°35' E 010°19'0 0.0
2016-Apr-30 17:32N 43°35' E 010°19'0 0.0
2016-Apr-30 16:32N 43°35' E 010°19'0 0.0
2016-Apr-30 15:32N 43°35' E 010°19'0 0.0
2016-Apr-30 14:32N 43°35' E 010°19'0 0.0
2016-Apr-30 13:20N 43°35' E 010°19'0 0.0
2016-Apr-30 12:20N 43°35' E 010°19'1 1.3
2016-Apr-30 11:33N 43°34' E 010°18'8 7.8
2016-Apr-30 10:33N 43°28' E 010°12'1312.9
2016-Apr-30 09:34N 43°15' E 010°14'1312.6
2016-Apr-30 08:33N 43°03' E 010°19'35112.5
2016-Apr-29 04:31N 38°40' E 015°27'1212.9
2016-Apr-29 03:33N 38°29' E 015°34'1212.3
2016-Apr-29 02:33N 38°18' E 015°41'1010.4
2016-Apr-29 01:33N 38°09' E 015°36'1212.4
2016-Apr-29 00:33N 37°56' E 015°34'  
2016-Apr-26 12:33N 36°41' E 014°31'1313.5
2016-Apr-26 11:34N 36°47' E 014°16'1313.0
2016-Apr-26 10:33N 36°53' E 014°01'1413.6
2016-Apr-26 09:33N 36°59' E 013°46'9513.4
2016-Apr-26 02:27N 37°49' E 012°04'14212.7
2016-Apr-25 15:15N 38°60' E 009°28'912.8
2016-Apr-25 14:33N 39°03' E 009°17'1211.9
2016-Apr-25 13:33N 39°06' E 009°02'0 0.1
2016-Apr-25 12:33N 39°06' E 009°02'0 0.0
2016-Apr-25 11:33N 39°06' E 009°02'0 0.0
2016-Apr-25 10:33N 39°06' E 009°02'0 0.0
2016-Apr-25 09:33N 39°06' E 009°02'0 0.0
2016-Apr-25 08:33N 39°06' E 009°02'1 0.5
2016-Apr-25 07:33N 39°06' E 009°02'0 0.0
2016-Apr-25 06:33N 39°06' E 009°02'0 0.0
2016-Apr-25 05:33N 39°06' E 009°02'0 0.0
2016-Apr-25 04:33N 39°06' E 009°02'0 0.0
2016-Apr-25 03:33N 39°06' E 009°02'0 0.0
2016-Apr-25 02:33N 39°06' E 009°02'0 0.0
2016-Apr-25 01:33N 39°06' E 009°02'0 0.0
2016-Apr-25 00:33N 39°06' E 009°02'0 0.0
2016-Apr-24 23:33N 39°06' E 009°02'0 0.0
2016-Apr-24 22:33N 39°06' E 009°02'0 0.0
2016-Apr-24 21:33N 39°06' E 009°02'0 0.0
2016-Apr-24 20:33N 39°06' E 009°02'0 0.0
2016-Apr-24 19:33N 39°06' E 009°02'0 0.0
2016-Apr-24 18:33N 39°06' E 009°02'0 0.0
2016-Apr-24 17:33N 39°06' E 009°02'0 0.0
2016-Apr-24 16:33N 39°06' E 009°02'  
Track history (hours):
 
Tides and Currents Weather Stations Pressure Air Temp Water Temp Dewpoint Dewpoint Depression Visibility Wind Speed Wind Dir Waves Ship Positions

Alessandro F

Last reported at 2016-May-04 16:32 UTC. Time now 2016-May-05 04:46 UTC.
Position N 37°56' E 015°31'.

Length 100 m; draft 6.2 m.

Type: Ship (hazmat cat A). MMSI: 247046400.

Date/timePositionNaut miles runAvg speedWind from/ knotsBaromVisibWave heightAir tempDewpointWater temp
2016-May-04 16:32N 37°56' E 015°31'1313.5
2016-May-04 15:34N 38°09' E 015°35'10 9.8
2016-May-04 14:33N 38°18' E 015°40'1313.3
2016-May-04 13:33N 38°20' E 015°23'1313.4
2016-May-04 12:33N 38°18' E 015°06'7013.0
2016-May-04 07:10N 38°24' E 013°37'813.0
2016-May-04 06:33N 38°24' E 013°27'1413.4
2016-May-04 05:30N 38°25' E 013°09'1313.3
2016-May-04 04:29N 38°26' E 012°51'16813.0
2016-May-03 15:32N 39°02' E 009°21'1313.3
2016-May-03 14:33N 39°06' E 009°05'3 3.0
2016-May-03 13:33N 39°06' E 009°02'0 0.0
2016-May-03 12:33N 39°06' E 009°02'0 0.0
2016-May-03 11:33N 39°06' E 009°02'0 0.0
2016-May-03 10:33N 39°06' E 009°02'0 0.0
2016-May-03 09:33N 39°06' E 009°02'0 0.0
2016-May-03 08:33N 39°06' E 009°02'0 0.0
2016-May-03 07:33N 39°06' E 009°02'0 0.0
2016-May-03 06:33N 39°06' E 009°02'0 0.0
2016-May-03 05:33N 39°06' E 009°02'0 0.0
2016-May-03 04:30N 39°06' E 009°02'0 0.0
2016-May-03 03:33N 39°06' E 009°02'0 0.0
2016-May-03 02:33N 39°06' E 009°02'0 0.0
2016-May-03 01:33N 39°06' E 009°02'0 0.0
2016-May-03 00:33N 39°06' E 009°02'0 0.0
2016-May-02 23:33N 39°06' E 009°02'0 0.0
2016-May-02 22:30N 39°06' E 009°02'0 0.0
2016-May-02 21:33N 39°06' E 009°02'0 0.0
2016-May-02 20:33N 39°06' E 009°02'1 1.5
2016-May-02 19:33N 39°07' E 009°03'0 0.1
2016-May-02 18:33N 39°07' E 009°03'0 0.0
2016-May-02 17:32N 39°07' E 009°03'0 0.0
2016-May-02 16:32N 39°07' E 009°03'0 0.0
2016-May-02 15:33N 39°07' E 009°03'0 0.0
2016-May-02 14:33N 39°07' E 009°03'0 0.0
2016-May-02 13:32N 39°07' E 009°03'0 0.0
2016-May-02 12:33N 39°07' E 009°03'0 0.0
2016-May-02 11:33N 39°07' E 009°03'0 0.0
2016-May-02 10:32N 39°07' E 009°03'0 0.0
2016-May-02 09:32N 39°07' E 009°03'0 0.0
2016-May-02 08:33N 39°07' E 009°03'0 0.0
2016-May-02 07:33N 39°07' E 009°03'2 2.1
2016-May-02 06:33N 39°06' E 009°06'1212.2
2016-May-02 05:33N 39°02' E 009°21'25612.2
2016-May-01 08:33N 43°16' E 010°06'1412.0
2016-May-01 07:23N 43°29' E 010°11'7 8.7
2016-May-01 06:33N 43°34' E 010°19'1 0.3
2016-May-01 03:29N 43°35' E 010°19'0 0.0
2016-May-01 02:14N 43°35' E 010°19'0 0.0
2016-May-01 01:32N 43°35' E 010°19'0 0.0
2016-May-01 00:32N 43°35' E 010°19'0 0.0
2016-Apr-30 23:29N 43°35' E 010°19'0 0.0
2016-Apr-30 19:26N 43°35' E 010°19'0 0.0
2016-Apr-30 17:32N 43°35' E 010°19'0 0.0
2016-Apr-30 16:32N 43°35' E 010°19'0 0.0
2016-Apr-30 15:32N 43°35' E 010°19'0 0.0
2016-Apr-30 14:32N 43°35' E 010°19'0 0.0
2016-Apr-30 13:20N 43°35' E 010°19'0 0.0
2016-Apr-30 12:20N 43°35' E 010°19'1 1.3
2016-Apr-30 11:33N 43°34' E 010°18'8 7.8
2016-Apr-30 10:33N 43°28' E 010°12'1312.9
2016-Apr-30 09:34N 43°15' E 010°14'1312.6
2016-Apr-30 08:33N 43°03' E 010°19'35112.5
2016-Apr-29 04:31N 38°40' E 015°27'1212.9
2016-Apr-29 03:33N 38°29' E 015°34'1212.3
2016-Apr-29 02:33N 38°18' E 015°41'1010.4
2016-Apr-29 01:33N 38°09' E 015°36'1212.4
2016-Apr-29 00:33N 37°56' E 015°34'  
2016-Apr-26 12:33N 36°41' E 014°31'1313.5
2016-Apr-26 11:34N 36°47' E 014°16'1313.0
2016-Apr-26 10:33N 36°53' E 014°01'1413.6
2016-Apr-26 09:33N 36°59' E 013°46'9513.4
2016-Apr-26 02:27N 37°49' E 012°04'14212.7
2016-Apr-25 15:15N 38°60' E 009°28'912.8
2016-Apr-25 14:33N 39°03' E 009°17'1211.9
2016-Apr-25 13:33N 39°06' E 009°02'0 0.1
2016-Apr-25 12:33N 39°06' E 009°02'0 0.0
2016-Apr-25 11:33N 39°06' E 009°02'0 0.0
2016-Apr-25 10:33N 39°06' E 009°02'0 0.0
2016-Apr-25 09:33N 39°06' E 009°02'0 0.0
2016-Apr-25 08:33N 39°06' E 009°02'1 0.5
2016-Apr-25 07:33N 39°06' E 009°02'0 0.0
2016-Apr-25 06:33N 39°06' E 009°02'0 0.0
2016-Apr-25 05:33N 39°06' E 009°02'0 0.0
2016-Apr-25 04:33N 39°06' E 009°02'0 0.0
2016-Apr-25 03:33N 39°06' E 009°02'0 0.0
2016-Apr-25 02:33N 39°06' E 009°02'0 0.0
2016-Apr-25 01:33N 39°06' E 009°02'0 0.0
2016-Apr-25 00:33N 39°06' E 009°02'0 0.0
2016-Apr-24 23:33N 39°06' E 009°02'0 0.0
2016-Apr-24 22:33N 39°06' E 009°02'0 0.0
2016-Apr-24 21:33N 39°06' E 009°02'0 0.0
2016-Apr-24 20:33N 39°06' E 009°02'0 0.0
2016-Apr-24 19:33N 39°06' E 009°02'0 0.0
2016-Apr-24 18:33N 39°06' E 009°02'0 0.0
2016-Apr-24 17:33N 39°06' E 009°02'0 0.0
2016-Apr-24 16:33N 39°06' E 009°02'  

Dump ship's entire track history